Time;durP1;ratioP1;P1;durP2;ratioP2;P2;SDS_P1;SDS_P2;PMS_P1;PMS_P2;Temp;Humidity;BMP_temperature;BMP_pressure;BME280_temperature;BME280_humidity;BME280_pressure;Samples;Min_cycle;Max_cycle;Signal;HPM_P1;HPM_P2
2021/07/11 00:00:26;;;;;;;18.13;15.32;;;17.90;96.40;;;;;;5033552;28;20108;-67
2021/07/11 00:02:52;;;;;;;17.02;14.27;;;17.90;96.40;;;;;;5022503;28;20029;-67
2021/07/11 00:05:19;;;;;;;16.38;14.50;;;18.00;96.50;;;;;;5018030;28;20368;-67
2021/07/11 00:07:45;;;;;;;18.10;14.98;;;17.90;96.50;;;;;;5035279;28;20017;-67
2021/07/11 00:10:13;;;;;;;19.80;16.05;;;18.00;96.50;;;;;;5034345;28;20033;-66
2021/07/11 00:12:39;;;;;;;23.08;18.58;;;17.90;96.50;;;;;;5027809;28;20069;-67
2021/07/11 00:15:09;;;;;;;24.63;20.13;;;17.90;96.80;;;;;;5030868;28;20025;-67
2021/07/11 00:17:35;;;;;;;26.38;20.40;;;17.90;96.50;;;;;;5033932;28;20037;-67
2021/07/11 00:20:00;;;;;;;26.58;20.40;;;17.80;96.90;;;;;;5034579;28;20021;-66
2021/07/11 00:22:26;;;;;;;28.50;22.08;;;17.80;96.70;;;;;;5033175;28;20561;-66
2021/07/11 00:24:52;;;;;;;26.23;22.80;;;17.90;96.80;;;;;;5031375;28;20036;-66
2021/07/11 00:27:17;;;;;;;30.17;22.83;;;17.80;96.80;;;;;;5034162;28;20033;-67
2021/07/11 00:29:43;;;;;;;27.05;21.20;;;17.90;96.90;;;;;;5031548;28;20040;-67
2021/07/11 00:32:08;;;;;;;27.02;22.38;;;17.80;96.90;;;;;;5030839;28;20115;-67
2021/07/11 00:34:35;;;;;;;32.05;25.52;;;17.80;96.90;;;;;;5032462;28;20047;-67
2021/07/11 00:37:01;;;;;;;26.75;21.00;;;17.90;96.90;;;;;;5032961;28;20025;-66
2021/07/11 00:39:26;;;;;;;27.05;21.55;;;17.90;96.90;;;;;;5021237;28;20033;-67
2021/07/11 00:41:52;;;;;;;29.30;21.90;;;17.80;96.80;;;;;;5029317;28;20089;-66
2021/07/11 00:44:18;;;;;;;30.65;22.15;;;17.80;96.80;;;;;;5032437;28;20037;-66
2021/07/11 00:46:45;;;;;;;29.67;21.50;;;17.80;96.90;;;;;;5034471;28;20037;-67
2021/07/11 00:49:11;;;;;;;32.20;22.92;;;17.80;96.90;;;;;;5033870;28;20080;-66
2021/07/11 00:51:36;;;;;;;30.15;22.15;;;17.80;96.90;;;;;;5028977;28;20511;-66
2021/07/11 00:54:02;;;;;;;31.92;23.40;;;17.80;96.90;;;;;;5033005;28;20030;-67
2021/07/11 00:56:29;;;;;;;27.90;19.92;;;17.70;96.80;;;;;;5031273;28;20369;-67
2021/07/11 00:58:55;;;;;;;31.92;22.40;;;17.70;96.90;;;;;;5021729;28;20051;-67
2021/07/11 01:01:37;;;;;;;32.03;23.38;;;17.70;97.00;;;;;;5026838;28;20033;-67
2021/07/11 01:04:08;;;;;;;32.45;23.45;;;17.70;97.00;;;;;;5032558;28;20030;-67
2021/07/11 01:06:37;;;;;;;34.33;22.92;;;17.70;97.00;;;;;;5032282;28;20022;-67
2021/07/11 01:09:08;;;;;;;27.70;20.52;;;17.70;97.00;;;;;;5032688;28;20464;-66
2021/07/11 01:11:43;;;;;;;27.13;21.52;;;17.70;97.00;;;;;;5028228;28;20088;-67
2021/07/11 01:14:10;;;;;;;25.38;19.70;;;17.70;97.00;;;;;;5023764;28;20117;-67
2021/07/11 01:16:37;;;;;;;27.05;20.88;;;17.70;97.10;;;;;;5029015;28;20037;-67
2021/07/11 01:19:35;;;;;;;27.60;21.27;;;17.70;97.10;;;;;;5032276;28;20033;-66
2021/07/11 01:22:06;;;;;;;26.35;19.48;;;17.70;97.00;;;;;;5021830;28;20021;-67
2021/07/11 01:24:35;;;;;;;27.70;21.58;;;17.70;97.00;;;;;;5032930;28;20029;-67
2021/07/11 01:27:03;;;;;;;30.88;21.77;;;17.60;97.00;;;;;;5025876;28;20037;-67
2021/07/11 01:29:30;;;;;;;29.85;19.85;;;17.60;97.10;;;;;;5032065;28;20116;-67
2021/07/11 01:31:56;;;;;;;29.90;22.25;;;17.60;97.10;;;;;;5018243;28;20097;-67
2021/07/11 01:34:23;;;;;;;27.98;20.45;;;17.60;97.20;;;;;;5032423;28;20030;-67
2021/07/11 01:36:50;;;;;;;29.08;20.92;;;17.60;97.20;;;;;;5032059;28;20018;-67
2021/07/11 01:39:16;;;;;;;26.42;19.67;;;17.60;97.30;;;;;;5031614;28;20093;-67
2021/07/11 01:41:45;;;;;;;28.67;21.42;;;17.60;97.30;;;;;;5026991;28;20109;-67
2021/07/11 01:44:11;;;;;;;28.98;20.23;;;17.50;97.30;;;;;;5030953;28;20026;-67
2021/07/11 01:46:39;;;;;;;27.80;20.63;;;17.50;97.40;;;;;;5026644;28;20117;-67
2021/07/11 01:49:05;;;;;;;23.63;19.15;;;17.50;97.40;;;;;;5018832;28;20045;-66
2021/07/11 01:51:31;;;;;;;27.70;21.27;;;17.50;97.50;;;;;;5025776;28;20480;-67
2021/07/11 01:53:57;;;;;;;28.30;20.02;;;17.50;97.40;;;;;;5026410;28;20419;-67
2021/07/11 01:56:23;;;;;;;30.15;22.05;;;17.50;97.40;;;;;;5032243;28;20023;-67
2021/07/11 01:58:48;;;;;;;35.70;24.83;;;17.50;97.50;;;;;;5031908;28;20033;-67
2021/07/11 02:01:16;;;;;;;28.45;21.42;;;17.50;97.50;;;;;;5031292;28;20026;-67
2021/07/11 02:03:42;;;;;;;44.03;25.85;;;17.50;97.50;;;;;;5028468;28;20092;-67
2021/07/11 02:06:10;;;;;;;34.85;21.88;;;17.50;97.60;;;;;;5027624;28;20420;-67
2021/07/11 02:08:36;;;;;;;29.20;23.05;;;17.50;97.60;;;;;;5018342;28;20036;-67
2021/07/11 02:11:03;;;;;;;30.15;23.42;;;17.50;97.70;;;;;;5015134;28;20049;-67
2021/07/11 02:13:46;;;;;;;32.00;23.13;;;17.50;97.70;;;;;;5025576;28;20028;-67
2021/07/11 02:16:29;;;;;;;29.38;21.75;;;17.50;97.60;;;;;;5025754;28;20081;-67
2021/07/11 02:18:57;;;;;;;29.40;22.63;;;17.50;97.70;;;;;;5015491;28;20053;-67
2021/07/11 02:21:23;;;;;;;34.22;24.65;;;17.50;97.70;;;;;;5031886;28;20029;-67
2021/07/11 02:23:52;;;;;;;31.30;23.15;;;17.50;97.70;;;;;;5031497;28;20435;-67
2021/07/11 02:26:18;;;;;;;32.67;23.70;;;17.50;97.80;;;;;;5030515;28;20041;-67
2021/07/11 02:28:44;;;;;;;29.60;22.65;;;17.50;97.80;;;;;;5032365;28;20030;-67
2021/07/11 02:31:13;;;;;;;29.80;21.70;;;17.60;97.80;;;;;;5032308;28;20022;-67
2021/07/11 02:33:40;;;;;;;28.30;21.98;;;17.60;97.80;;;;;;5027796;28;20017;-67
2021/07/11 02:36:12;;;;;;;30.60;22.42;;;17.60;97.80;;;;;;5030587;28;20041;-67
2021/07/11 02:38:48;;;;;;;33.47;25.90;;;17.60;97.80;;;;;;5032196;28;20025;-67
2021/07/11 02:41:16;;;;;;;29.60;22.85;;;17.60;97.80;;;;;;5028471;28;20030;-67
2021/07/11 02:43:43;;;;;;;36.38;24.45;;;17.50;97.80;;;;;;5029850;28;20113;-67
2021/07/11 02:46:12;;;;;;;28.58;23.40;;;17.50;97.90;;;;;;5030821;28;20033;-64
2021/07/11 02:48:41;;;;;;;30.90;24.17;;;17.50;97.90;;;;;;5031320;28;20052;-66
2021/07/11 02:51:09;;;;;;;31.67;23.85;;;17.50;97.90;;;;;;5028214;28;20560;-67
2021/07/11 02:53:35;;;;;;;30.38;23.65;;;17.50;97.90;;;;;;5025567;28;20116;-67
2021/07/11 02:56:02;;;;;;;35.72;26.38;;;17.50;97.90;;;;;;5029975;28;20026;-67
2021/07/11 02:58:30;;;;;;;30.52;24.23;;;17.40;98.00;;;;;;5029898;28;20030;-67
2021/07/11 03:00:56;;;;;;;34.10;24.20;;;17.40;98.00;;;;;;5032481;28;20451;-67
2021/07/11 03:03:22;;;;;;;34.97;24.35;;;17.40;98.00;;;;;;5031131;28;20037;-67
2021/07/11 03:05:48;;;;;;;35.67;26.42;;;17.40;98.00;;;;;;5033374;28;20029;-67
2021/07/11 03:08:13;;;;;;;36.53;25.00;;;17.40;98.00;;;;;;5034011;28;20036;-67
2021/07/11 03:10:40;;;;;;;36.35;26.83;;;17.40;98.00;;;;;;5031623;28;20128;-67
2021/07/11 03:13:06;;;;;;;34.63;25.10;;;17.40;98.10;;;;;;5027397;28;20390;-67
2021/07/11 03:15:33;;;;;;;38.50;26.80;;;17.40;98.10;;;;;;5018295;28;20024;-67
2021/07/11 03:17:59;;;;;;;35.00;24.80;;;17.40;98.10;;;;;;5025611;28;20050;-67
2021/07/11 03:20:27;;;;;;;32.63;25.73;;;17.40;98.10;;;;;;5033813;28;20026;-67
2021/07/11 03:22:55;;;;;;;35.08;25.80;;;17.40;98.20;;;;;;5032017;28;20573;-67
2021/07/11 03:25:22;;;;;;;35.83;25.38;;;17.40;98.20;;;;;;5036369;28;20104;-67
2021/07/11 03:27:48;;;;;;;35.83;26.15;;;17.40;98.20;;;;;;5027664;28;20034;-67
2021/07/11 03:30:18;;;;;;;34.65;25.88;;;17.40;98.20;;;;;;5025447;28;20472;-67
2021/07/11 03:32:56;;;;;;;34.97;26.58;;;17.40;98.20;;;;;;5026623;28;20024;-67
2021/07/11 03:35:29;;;;;;;33.85;25.63;;;17.40;98.20;;;;;;5033576;28;20025;-67
2021/07/11 03:37:58;;;;;;;35.33;27.17;;;17.30;98.30;;;;;;5033245;28;20076;-67
2021/07/11 03:40:29;;;;;;;36.42;26.60;;;17.30;98.30;;;;;;5030037;28;20017;-67
2021/07/11 03:42:57;;;;;;;30.98;24.17;;;17.30;98.30;;;;;;5034729;28;20534;-67
2021/07/11 03:45:25;;;;;;;32.85;25.27;;;17.20;98.40;;;;;;5034971;28;20033;-67
2021/07/11 03:48:08;;;;;;;36.80;26.95;;;17.20;98.40;;;;;;5028354;28;20053;-67
2021/07/11 03:50:37;;;;;;;33.95;25.63;;;17.20;98.40;;;;;;5033017;28;20486;-67
2021/07/11 03:53:06;;;;;;;35.47;26.40;;;17.20;98.50;;;;;;5027389;28;20041;-67
2021/07/11 03:55:34;;;;;;;35.70;25.75;;;17.20;98.60;;;;;;5033791;28;20067;-66
2021/07/11 03:58:02;;;;;;;38.20;26.35;;;17.20;98.60;;;;;;5025482;28;20030;-67
2021/07/11 04:00:29;;;;;;;41.15;26.20;;;17.20;98.60;;;;;;5034086;28;20025;-67
2021/07/11 04:02:55;;;;;;;44.60;28.58;;;17.20;98.60;;;;;;5029049;28;20022;-67
2021/07/11 04:05:24;;;;;;;41.05;29.02;;;17.20;98.70;;;;;;5033425;28;20026;-67
2021/07/11 04:07:52;;;;;;;44.13;28.42;;;17.10;98.70;;;;;;5033891;28;20079;-66
2021/07/11 04:10:25;;;;;;;42.13;27.95;;;17.10;98.70;;;;;;5031793;28;20091;-67
2021/07/11 04:12:52;;;;;;;38.80;26.58;;;17.20;98.80;;;;;;5028915;28;20060;-67
2021/07/11 04:15:17;;;;;;;40.92;27.33;;;17.20;98.80;;;;;;5017131;28;20506;-67
2021/07/11 04:17:47;;;;;;;36.58;26.02;;;17.20;98.80;;;;;;5030849;28;20040;-67
2021/07/11 04:20:14;;;;;;;40.10;29.48;;;17.20;98.80;;;;;;5036249;28;20334;-67
2021/07/11 04:22:41;;;;;;;41.75;27.58;;;17.20;98.80;;;;;;5033847;28;20116;-67
2021/07/11 04:25:10;;;;;;;46.15;29.95;;;17.20;98.80;;;;;;5027354;28;20038;-67
2021/07/11 04:27:37;;;;;;;43.78;30.35;;;17.30;98.80;;;;;;5026324;28;20048;-67
2021/07/11 04:30:04;;;;;;;39.80;27.92;;;17.30;98.80;;;;;;5028555;28;20074;-67
2021/07/11 04:32:30;;;;;;;49.88;29.80;;;17.30;98.80;;;;;;5027208;28;20033;-65
2021/07/11 04:34:55;;;;;;;37.88;28.63;;;17.30;98.80;;;;;;5028579;28;20033;-66
2021/07/11 04:37:21;;;;;;;39.55;28.02;;;17.20;98.80;;;;;;5027423;28;20032;-66
2021/07/11 04:39:46;;;;;;;41.30;26.42;;;17.20;98.80;;;;;;5025374;28;20037;-66
2021/07/11 04:42:12;;;;;;;38.58;26.55;;;17.30;98.80;;;;;;5028498;28;20040;-67
2021/07/11 04:44:43;;;;;;;37.85;27.80;;;17.30;98.80;;;;;;5029036;28;20030;-66
2021/07/11 04:47:09;;;;;;;38.53;29.48;;;17.30;98.80;;;;;;5024677;28;20030;-66
2021/07/11 04:49:34;;;;;;;41.45;29.77;;;17.20;98.80;;;;;;5028438;28;20048;-66
2021/07/11 04:52:03;;;;;;;47.25;29.20;;;17.20;98.80;;;;;;5032587;28;20389;-65
2021/07/11 04:54:28;;;;;;;42.70;29.58;;;17.30;98.80;;;;;;5034287;28;20116;-64
2021/07/11 04:56:54;;;;;;;38.58;27.00;;;17.30;98.90;;;;;;5031120;28;20057;-65
2021/07/11 04:59:19;;;;;;;41.97;27.73;;;17.30;98.90;;;;;;5034145;28;20025;-65
2021/07/11 05:01:45;;;;;;;41.22;28.20;;;17.30;98.90;;;;;;5031387;28;20092;-65
2021/07/11 05:04:10;;;;;;;42.10;31.10;;;17.30;99.00;;;;;;5033941;28;20038;-65
2021/07/11 05:06:36;;;;;;;49.00;31.63;;;17.30;98.90;;;;;;5027371;28;20033;-66
2021/07/11 05:09:05;;;;;;;47.97;28.55;;;17.30;99.00;;;;;;5034156;28;20025;-65
2021/07/11 05:11:31;;;;;;;57.13;30.60;;;17.30;99.00;;;;;;5033122;28;20026;-65
2021/07/11 05:13:57;;;;;;;48.33;31.73;;;17.40;99.10;;;;;;5031131;28;20464;-65
2021/07/11 05:16:23;;;;;;;51.10;31.63;;;17.30;99.10;;;;;;5026335;28;20400;-66
2021/07/11 05:18:48;;;;;;;43.72;31.23;;;17.30;99.10;;;;;;5023497;28;20049;-65
2021/07/11 05:21:14;;;;;;;42.35;29.88;;;17.30;99.10;;;;;;5027589;28;20112;-65
2021/07/11 05:23:39;;;;;;;41.55;28.67;;;17.40;99.20;;;;;;5027552;28;20036;-66
2021/07/11 05:26:05;;;;;;;50.78;33.08;;;17.40;99.20;;;;;;5030578;28;20037;-65
2021/07/11 05:28:31;;;;;;;48.38;30.20;;;17.40;99.20;;;;;;5025012;28;20033;-65
2021/07/11 05:30:56;;;;;;;63.85;32.72;;;17.50;99.20;;;;;;5029132;28;20105;-66
2021/07/11 05:33:22;;;;;;;46.75;31.67;;;17.50;99.20;;;;;;5029534;28;20021;-66
2021/07/11 05:35:47;;;;;;;42.10;29.05;;;17.50;99.20;;;;;;5029336;28;20041;-65
2021/07/11 05:38:13;;;;;;;44.85;30.00;;;17.60;99.50;;;;;;5019501;28;20033;-66
2021/07/11 05:40:39;;;;;;;41.03;28.95;;;17.70;99.30;;;;;;5029628;28;20551;-66
2021/07/11 05:43:05;;;;;;;39.53;27.27;;;17.80;99.40;;;;;;5032292;28;20052;-65
2021/07/11 05:45:30;;;;;;;37.55;27.08;;;17.90;99.40;;;;;;5031085;28;20476;-66
2021/07/11 05:47:56;;;;;;;41.30;28.42;;;18.10;99.40;;;;;;5023843;28;20484;-65
2021/07/11 05:50:22;;;;;;;31.58;22.95;;;18.30;99.30;;;;;;5026040;28;20843;-66
2021/07/11 05:52:47;;;;;;;32.72;25.08;;;18.40;99.00;;;;;;5032020;28;20036;-66
2021/07/11 05:55:13;;;;;;;34.13;24.35;;;18.50;98.90;;;;;;5030223;28;20495;-65
2021/07/11 05:57:38;;;;;;;31.70;24.50;;;18.70;98.80;;;;;;5017581;28;20407;-66
2021/07/11 06:00:09;;;;;;;34.70;25.45;;;18.80;98.60;;;;;;5030986;28;20060;-65
2021/07/11 06:02:35;;;;;;;32.20;24.38;;;18.80;98.40;;;;;;5029239;28;20440;-65
2021/07/11 06:05:01;;;;;;;35.28;26.05;;;18.80;98.30;;;;;;5028600;28;20063;-65
2021/07/11 06:07:26;;;;;;;30.98;23.83;;;18.90;98.20;;;;;;5029733;28;20039;-65
2021/07/11 06:09:52;;;;;;;33.83;25.38;;;18.90;98.00;;;;;;5019496;28;20365;-65
2021/07/11 06:12:17;;;;;;;34.38;25.42;;;18.90;98.00;;;;;;5033160;28;20021;-65
2021/07/11 06:14:43;;;;;;;30.13;24.20;;;19.00;98.00;;;;;;5030607;28;20555;-65
2021/07/11 06:17:09;;;;;;;30.58;22.42;;;19.00;97.80;;;;;;5028639;28;20408;-66
2021/07/11 06:19:35;;;;;;;33.90;24.65;;;19.20;97.60;;;;;;5030177;28;20029;-66
2021/07/11 06:22:00;;;;;;;30.83;23.38;;;19.30;97.50;;;;;;5032386;28;20087;-66
2021/07/11 06:24:26;;;;;;;35.42;26.63;;;19.40;97.40;;;;;;5022278;28;22076;-67
2021/07/11 06:26:52;;;;;;;35.08;26.50;;;19.40;97.20;;;;;;5027298;28;20033;-66
2021/07/11 06:29:17;;;;;;;32.45;25.65;;;19.60;97.00;;;;;;5024785;28;20076;-66
2021/07/11 06:31:43;;;;;;;39.95;28.90;;;19.70;96.90;;;;;;5029693;28;20033;-66
2021/07/11 06:34:08;;;;;;;33.33;27.17;;;19.80;96.80;;;;;;5024257;28;20041;-67
2021/07/11 06:36:34;;;;;;;32.50;25.33;;;19.80;96.40;;;;;;5028328;28;20057;-66
2021/07/11 06:39:00;;;;;;;36.10;26.88;;;19.90;96.40;;;;;;5022054;28;20435;-67
2021/07/11 06:41:26;;;;;;;35.53;29.35;;;20.00;96.20;;;;;;5028762;28;20357;-67
2021/07/11 06:43:51;;;;;;;38.13;29.00;;;20.20;96.10;;;;;;5029345;28;20036;-67
2021/07/11 06:46:17;;;;;;;36.60;29.25;;;20.30;95.80;;;;;;5032208;28;20040;-66
2021/07/11 06:48:43;;;;;;;36.88;30.20;;;20.30;95.60;;;;;;5036284;28;20029;-67
2021/07/11 06:51:08;;;;;;;35.30;28.80;;;20.30;95.60;;;;;;5026550;28;20025;-67
2021/07/11 06:53:35;;;;;;;35.55;28.27;;;20.30;95.50;;;;;;5020224;28;20480;-67
2021/07/11 06:56:01;;;;;;;32.20;27.15;;;20.30;95.30;;;;;;5029010;28;20033;-67
2021/07/11 06:58:27;;;;;;;32.17;26.90;;;20.20;94.90;;;;;;5033938;28;20079;-67
2021/07/11 07:00:52;;;;;;;35.22;27.95;;;20.00;95.00;;;;;;5032714;28;20418;-67
2021/07/11 07:03:18;;;;;;;34.55;26.90;;;19.90;95.10;;;;;;5033418;28;20041;-67
2021/07/11 07:05:43;;;;;;;32.60;27.02;;;19.80;95.10;;;;;;5032810;28;20371;-67
2021/07/11 07:08:09;;;;;;;36.05;27.67;;;19.80;95.20;;;;;;5031715;28;20041;-67
2021/07/11 07:10:34;;;;;;;33.45;26.13;;;19.70;95.20;;;;;;5028844;28;20025;-67
2021/07/11 07:13:00;;;;;;;32.67;26.00;;;19.70;95.30;;;;;;5034922;28;20028;-67
2021/07/11 07:15:25;;;;;;;35.63;26.02;;;19.60;95.30;;;;;;5033272;28;20100;-67
2021/07/11 07:17:51;;;;;;;31.55;23.67;;;19.60;95.30;;;;;;5035029;28;20433;-67
2021/07/11 07:20:16;;;;;;;30.77;24.40;;;19.60;95.40;;;;;;5034123;28;20021;-67
2021/07/11 07:22:42;;;;;;;31.95;23.42;;;19.60;95.40;;;;;;5030845;28;20045;-67
2021/07/11 07:25:11;;;;;;;28.98;22.90;;;19.60;95.40;;;;;;5034913;28;20029;-67
2021/07/11 07:27:37;;;;;;;30.73;23.42;;;19.70;95.40;;;;;;5030972;28;20037;-67
2021/07/11 07:30:04;;;;;;;29.95;24.20;;;19.70;95.40;;;;;;5035640;28;20048;-67
2021/07/11 07:32:30;;;;;;;32.17;25.02;;;19.60;95.00;;;;;;5035525;28;20026;-67
2021/07/11 07:34:55;;;;;;;32.70;26.00;;;19.50;95.00;;;;;;5034865;28;20029;-67
2021/07/11 07:37:21;;;;;;;34.28;26.88;;;19.40;95.20;;;;;;5028414;28;20391;-67
2021/07/11 07:39:47;;;;;;;32.63;25.73;;;19.20;95.10;;;;;;5028735;28;20025;-67
2021/07/11 07:42:12;;;;;;;38.70;29.48;;;19.20;95.30;;;;;;5035330;28;20080;-67
2021/07/11 07:44:38;;;;;;;37.15;27.90;;;19.10;95.30;;;;;;5035337;28;20049;-67
2021/07/11 07:47:04;;;;;;;41.40;29.42;;;19.10;95.30;;;;;;5027154;28;20029;-67
2021/07/11 07:49:29;;;;;;;38.63;28.33;;;19.10;95.20;;;;;;5030402;28;20112;-67
2021/07/11 07:51:55;;;;;;;37.58;27.38;;;19.00;95.30;;;;;;5034719;28;20017;-67
2021/07/11 07:54:20;;;;;;;36.83;26.92;;;19.10;95.60;;;;;;5035624;28;20490;-67
2021/07/11 07:56:46;;;;;;;40.03;28.48;;;19.10;95.60;;;;;;5025907;28;20040;-67
2021/07/11 07:59:11;;;;;;;38.67;29.20;;;19.20;95.40;;;;;;5033566;28;20116;-67
2021/07/11 08:01:38;;;;;;;38.28;27.23;;;19.20;95.30;;;;;;5019241;28;20029;-67
2021/07/11 08:04:04;;;;;;;41.38;29.20;;;19.20;95.40;;;;;;5033391;28;20538;-67
2021/07/11 08:06:31;;;;;;;45.03;31.30;;;19.20;95.30;;;;;;5031842;28;20044;-67
2021/07/11 08:08:57;;;;;;;43.78;30.55;;;19.20;95.30;;;;;;5029955;28;20061;-66
2021/07/11 08:11:22;;;;;;;49.70;32.78;;;19.20;95.30;;;;;;5035217;28;20022;-66
2021/07/11 08:13:48;;;;;;;46.25;32.83;;;19.20;95.20;;;;;;5033630;28;20088;-67
2021/07/11 08:16:13;;;;;;;47.88;33.50;;;19.20;95.10;;;;;;5034626;28;20492;-67
2021/07/11 08:18:39;;;;;;;49.80;33.17;;;19.20;95.20;;;;;;5032981;28;20044;-67
2021/07/11 08:21:05;;;;;;;47.50;32.65;;;19.30;95.10;;;;;;5034719;28;20029;-67
2021/07/11 08:23:30;;;;;;;46.53;33.20;;;19.30;95.10;;;;;;5033670;28;20399;-67
2021/07/11 08:25:56;;;;;;;50.10;33.80;;;19.30;95.10;;;;;;5030680;28;20037;-67
2021/07/11 08:28:21;;;;;;;48.58;33.92;;;19.40;95.10;;;;;;5030511;28;20035;-67
2021/07/11 08:30:47;;;;;;;46.83;32.92;;;19.40;95.00;;;;;;5033554;28;20376;-67
2021/07/11 08:33:12;;;;;;;48.83;32.80;;;19.40;95.00;;;;;;5033453;28;20022;-67
2021/07/11 08:35:38;;;;;;;56.70;36.03;;;19.50;95.00;;;;;;5030682;28;20018;-67
2021/07/11 08:38:04;;;;;;;57.08;37.67;;;19.60;95.00;;;;;;5025953;28;20030;-67
2021/07/11 08:40:33;;;;;;;58.25;39.22;;;19.80;94.90;;;;;;5034618;28;20391;-67
2021/07/11 08:43:00;;;;;;;53.65;35.60;;;19.90;94.70;;;;;;5031273;28;20109;-66
2021/07/11 08:45:26;;;;;;;58.38;38.50;;;20.30;94.60;;;;;;5032623;28;20025;-68
2021/07/11 08:47:52;;;;;;;52.85;35.95;;;20.70;94.20;;;;;;5023172;28;20080;-67
2021/07/11 08:50:17;;;;;;;59.25;39.28;;;20.90;93.70;;;;;;5032243;28;20072;-67
2021/07/11 08:52:46;;;;;;;51.58;35.17;;;21.00;93.30;;;;;;5031792;28;20033;-67
2021/07/11 08:55:13;;;;;;;51.00;35.75;;;21.00;93.10;;;;;;5026163;28;20034;-67
2021/07/11 08:57:38;;;;;;;52.47;35.25;;;21.00;92.80;;;;;;5029890;28;20084;-67
2021/07/11 09:00:06;;;;;;;47.92;33.88;;;21.00;92.70;;;;;;5023568;28;20034;-67
2021/07/11 09:02:31;;;;;;;45.13;32.53;;;21.20;92.60;;;;;;5033663;28;20059;-67
2021/07/11 09:04:57;;;;;;;50.13;34.13;;;21.30;92.20;;;;;;5033758;28;20475;-67
2021/07/11 09:07:23;;;;;;;48.72;33.92;;;21.20;92.10;;;;;;5033978;28;20575;-67
2021/07/11 09:09:57;;;;;;;49.42;33.53;;;21.20;92.00;;;;;;5021126;28;20034;-67
2021/07/11 09:12:24;;;;;;;50.70;35.20;;;21.20;91.70;;;;;;5042533;28;20485;-67
2021/07/11 09:14:51;;;;;;;49.40;34.85;;;21.10;91.40;;;;;;5026660;28;20472;-67
2021/07/11 09:17:17;;;;;;;46.97;32.35;;;21.10;91.90;;;;;;5014364;28;20045;-67
2021/07/11 09:19:45;;;;;;;47.47;32.50;;;21.20;91.70;;;;;;5020657;28;20045;-67
2021/07/11 09:22:16;;;;;;;47.35;32.78;;;21.10;91.40;;;;;;5024233;28;20025;-67
2021/07/11 09:24:49;;;;;;;41.78;29.20;;;21.10;91.50;;;;;;5031452;28;20030;-67
2021/07/11 09:27:17;;;;;;;45.65;28.65;;;21.40;91.70;;;;;;5018321;28;20375;-67
2021/07/11 09:29:43;;;;;;;45.40;32.13;;;21.60;91.60;;;;;;5033272;28;20465;-67
2021/07/11 09:32:24;;;;;;;41.00;29.30;;;21.60;90.90;;;;;;5033434;28;20080;-67
2021/07/11 09:34:49;;;;;;;37.58;26.60;;;21.50;90.90;;;;;;5031270;28;20018;-67
2021/07/11 09:37:17;;;;;;;39.85;28.02;;;21.50;91.00;;;;;;5030354;28;20124;-67
2021/07/11 09:39:52;;;;;;;41.05;28.35;;;21.70;90.80;;;;;;5028901;28;20446;-67
2021/07/11 09:42:36;;;;;;;49.05;27.90;;;21.90;90.20;;;;;;5028726;28;20087;-68
2021/07/11 09:45:17;;;;;;;42.70;29.85;;;22.00;90.00;;;;;;5025456;28;20045;-67
2021/07/11 09:47:44;;;;;;;42.60;29.95;;;22.00;90.00;;;;;;5029270;28;20025;-68
2021/07/11 09:50:19;;;;;;;39.45;29.38;;;22.10;89.20;;;;;;5025680;28;20496;-68
2021/07/11 09:52:50;;;;;;;40.38;28.00;;;22.00;88.50;;;;;;5027776;28;20033;-68
2021/07/11 09:55:21;;;;;;;40.03;29.38;;;22.00;88.60;;;;;;5033373;28;20025;-69
2021/07/11 09:57:54;;;;;;;39.60;28.52;;;22.00;88.30;;;;;;5028151;28;20032;-69
2021/07/11 10:00:29;;;;;;;40.13;30.88;;;22.00;88.50;;;;;;5031705;28;20041;-68
2021/07/11 10:02:57;;;;;;;41.13;29.60;;;22.10;88.40;;;;;;5022482;28;20029;-69
2021/07/11 10:05:24;;;;;;;42.63;29.63;;;22.10;88.60;;;;;;5033021;28;20029;-68
2021/07/11 10:07:50;;;;;;;40.15;29.38;;;22.10;88.00;;;;;;5029170;28;20021;-67
2021/07/11 10:10:19;;;;;;;38.28;28.55;;;22.20;87.30;;;;;;5025907;28;20541;-67
2021/07/11 10:12:46;;;;;;;38.30;28.08;;;22.30;87.40;;;;;;5032864;28;20022;-68
2021/07/11 10:15:15;;;;;;;34.20;24.27;;;22.40;87.10;;;;;;5017875;28;20464;-68
2021/07/11 10:17:51;;;;;;;34.00;26.00;;;22.50;86.80;;;;;;5024533;28;20045;-68
2021/07/11 10:20:19;;;;;;;36.03;25.13;;;22.60;86.00;;;;;;5031319;28;20031;-67
2021/07/11 10:22:52;;;;;;;31.25;24.63;;;22.70;86.20;;;;;;5030623;28;20112;-68
2021/07/11 10:25:21;;;;;;;32.58;23.20;;;22.60;86.30;;;;;;5028331;28;20033;-68
2021/07/11 10:27:49;;;;;;;30.20;21.88;;;22.60;86.10;;;;;;5029465;28;20065;-68
2021/07/11 10:30:15;;;;;;;33.60;24.50;;;22.70;85.80;;;;;;5029244;28;20038;-67
2021/07/11 10:32:41;;;;;;;29.63;22.45;;;22.70;85.30;;;;;;5027224;28;20487;-67
2021/07/11 10:35:09;;;;;;;30.52;21.92;;;22.90;85.50;;;;;;5026142;28;20032;-67
2021/07/11 10:37:54;;;;;;;27.33;21.08;;;23.10;84.90;;;;;;5033005;28;20357;-67
2021/07/11 10:40:34;;;;;;;27.05;20.00;;;23.30;84.70;;;;;;5025344;28;20033;-67
2021/07/11 10:43:00;;;;;;;26.13;19.50;;;23.50;84.20;;;;;;5029088;28;20026;-67
2021/07/11 10:45:26;;;;;;;31.13;22.40;;;23.60;82.90;;;;;;5018371;28;20107;-68
2021/07/11 10:48:04;;;;;;;25.48;19.88;;;23.70;81.70;;;;;;5018016;28;20053;-67
2021/07/11 10:50:31;;;;;;;22.90;18.45;;;23.70;80.80;;;;;;5015028;28;20061;-67
2021/07/11 10:52:59;;;;;;;29.55;23.85;;;23.70;81.20;;;;;;5024160;28;20013;-67
2021/07/11 10:55:37;;;;;;;26.42;20.42;;;23.70;80.50;;;;;;5027257;28;20379;-68
2021/07/11 10:58:17;;;;;;;26.48;20.23;;;23.70;80.40;;;;;;5026017;28;20033;-67
2021/07/11 11:00:44;;;;;;;29.00;22.67;;;23.60;80.60;;;;;;5031062;28;20165;-68
2021/07/11 11:03:22;;;;;;;25.70;20.38;;;23.80;80.10;;;;;;5032217;28;20029;-68
2021/07/11 11:05:50;;;;;;;23.08;18.92;;;23.80;79.50;;;;;;5023349;28;20022;-68
2021/07/11 11:08:21;;;;;;;27.77;21.80;;;23.70;79.50;;;;;;5021899;28;20044;-68
2021/07/11 11:10:53;;;;;;;23.77;19.33;;;23.80;79.70;;;;;;5016955;28;20084;-68
2021/07/11 11:13:21;;;;;;;26.17;19.85;;;23.90;79.50;;;;;;5021816;28;20772;-68
2021/07/11 11:15:53;;;;;;;24.67;18.88;;;23.90;78.40;;;;;;5025745;28;20120;-68
2021/07/11 11:18:20;;;;;;;24.33;18.70;;;23.80;77.60;;;;;;5029514;28;20033;-68
2021/07/11 11:21:11;;;;;;;22.55;17.73;;;23.80;78.40;;;;;;5031533;28;20057;-68
2021/07/11 11:23:41;;;;;;;17.00;14.40;;;23.90;78.50;;;;;;5029388;28;20053;-68
2021/07/11 11:26:08;;;;;;;22.75;17.38;;;24.10;78.10;;;;;;5031125;28;20083;-68
2021/07/11 11:28:39;;;;;;;21.52;17.33;;;24.20;77.30;;;;;;5035395;28;20421;-67
2021/07/11 11:31:16;;;;;;;21.70;16.05;;;24.50;76.80;;;;;;5032594;28;20021;-68
2021/07/11 11:33:51;;;;;;;19.67;15.93;;;24.90;76.40;;;;;;5029396;28;20021;-68
2021/07/11 11:36:18;;;;;;;21.83;17.67;;;25.10;75.00;;;;;;5025842;28;20466;-68
2021/07/11 11:38:44;;;;;;;19.65;15.80;;;25.10;73.70;;;;;;5034426;28;20048;-68
2021/07/11 11:41:14;;;;;;;21.67;16.83;;;25.10;74.10;;;;;;5031860;28;20104;-68
2021/07/11 11:43:40;;;;;;;18.50;14.90;;;25.20;73.20;;;;;;5033881;28;20056;-68
2021/07/11 11:46:06;;;;;;;20.52;18.30;;;25.30;72.70;;;;;;5033568;28;20096;-68
2021/07/11 11:48:32;;;;;;;17.70;14.35;;;25.30;72.10;;;;;;5034121;28;20108;-68
2021/07/11 11:51:05;;;;;;;19.77;15.40;;;25.30;72.70;;;;;;5032004;28;20426;-68
2021/07/11 11:53:43;;;;;;;16.05;13.48;;;25.40;72.90;;;;;;5034170;28;20029;-67
2021/07/11 11:56:12;;;;;;;17.73;14.38;;;25.50;73.40;;;;;;5033917;28;20146;-68
2021/07/11 11:58:38;;;;;;;17.35;14.15;;;25.80;71.90;;;;;;5031635;28;20468;-67
2021/07/11 12:01:08;;;;;;;22.65;18.63;;;25.90;70.50;;;;;;5031925;28;20087;-67
2021/07/11 12:03:36;;;;;;;19.13;15.88;;;25.80;69.40;;;;;;5034050;28;20034;-68
2021/07/11 12:06:03;;;;;;;18.23;15.27;;;25.70;69.40;;;;;;5033929;28;20029;-67
2021/07/11 12:08:31;;;;;;;18.02;14.55;;;25.60;70.10;;;;;;5032846;28;20030;-68
2021/07/11 12:10:58;;;;;;;18.38;14.60;;;25.60;70.00;;;;;;5031727;28;20030;-68
2021/07/11 12:13:25;;;;;;;14.75;11.65;;;25.50;69.90;;;;;;5030430;28;20461;-67
2021/07/11 12:16:07;;;;;;;15.32;13.70;;;25.50;70.90;;;;;;5031441;28;20046;-67
2021/07/11 12:18:48;;;;;;;16.30;13.18;;;25.90;69.70;;;;;;5028042;28;20017;-67
2021/07/11 12:21:23;;;;;;;16.30;13.07;;;26.20;68.00;;;;;;5031393;28;20028;-68
2021/07/11 12:24:02;;;;;;;15.82;13.10;;;26.50;67.60;;;;;;5029777;28;20052;-68
2021/07/11 12:26:29;;;;;;;18.23;15.05;;;26.70;68.10;;;;;;5032127;28;20040;-68
2021/07/11 12:28:56;;;;;;;17.08;15.20;;;26.80;66.90;;;;;;5030747;28;20033;-68
2021/07/11 12:31:24;;;;;;;15.45;13.30;;;26.70;65.90;;;;;;5028806;28;20412;-68